Time;durP1;ratioP1;P1;durP2;ratioP2;P2;SDS_P1;SDS_P2;PMS_P1;PMS_P2;Temp;Humidity;BMP_temperature;BMP_pressure;BME280_temperature;BME280_humidity;BME280_pressure;Samples;Min_cycle;Max_cycle;Signal;HPM_P1;HPM_P2
2024/02/04 00:02:01;;;;;;;0.30;0.20;;;9.00;99.90;;;;;;5117534;27;20425;-58
2024/02/04 00:04:28;;;;;;;2.60;0.20;;;9.10;99.90;;;;;;5136064;27;20422;-59
2024/02/04 00:06:55;;;;;;;0.40;0.13;;;9.10;98.80;;;;;;5128605;27;20433;-58
2024/02/04 00:09:22;;;;;;;0.40;0.20;;;9.00;20.50;;;;;;5111436;28;20717;-59
2024/02/04 00:11:50;;;;;;;0.40;0.10;;;8.90;99.90;;;;;;5127387;27;20431;-56
2024/02/04 00:14:20;;;;;;;0.40;0.10;;;8.90;1.00;;;;;;5133457;27;20422;-59
2024/02/04 00:16:47;;;;;;;0.30;0.10;;;8.80;1.00;;;;;;5092937;28;20422;-58
2024/02/04 00:19:14;;;;;;;0.30;0.20;;;8.70;1.00;;;;;;5110009;27;20488;-56
2024/02/04 00:21:41;;;;;;;0.30;0.10;;;8.80;1.00;;;;;;5135416;27;20945;-57
2024/02/04 00:24:08;;;;;;;0.40;0.20;;;8.80;1.00;;;;;;5136298;27;20410;-58
2024/02/04 00:26:35;;;;;;;0.40;0.10;;;8.80;1.00;;;;;;5135945;27;20757;-58
2024/02/04 00:29:02;;;;;;;0.30;0.10;;;8.80;1.00;;;;;;5135940;27;20438;-58
2024/02/04 00:31:30;;;;;;;0.30;0.10;;;8.80;1.00;;;;;;5136052;27;20489;-58
2024/02/04 00:33:57;;;;;;;0.40;0.10;;;8.80;1.00;;;;;;5136336;27;20928;-56
2024/02/04 00:36:24;;;;;;;0.40;0.10;;;8.80;1.00;;;;;;5135480;27;20535;-58
2024/02/04 00:38:51;;;;;;;0.30;0.10;;;8.80;1.00;;;;;;5122417;27;20427;-57
2024/02/04 00:41:18;;;;;;;0.40;0.10;;;8.80;1.00;;;;;;5114250;28;20489;-56
2024/02/04 00:43:45;;;;;;;0.30;0.10;;;8.80;1.00;;;;;;5114388;28;20594;-58
2024/02/04 00:46:12;;;;;;;0.30;0.10;;;8.90;1.00;;;;;;5115444;28;20428;-57
2024/02/04 00:48:41;;;;;;;0.50;0.10;;;8.90;1.00;;;;;;5114266;28;20784;-58
2024/02/04 00:51:09;;;;;;;0.50;0.10;;;8.90;1.00;;;;;;5118412;27;20450;-58
2024/02/04 00:53:37;;;;;;;0.40;0.10;;;9.00;98.70;;;;;;5125401;27;20426;-58
2024/02/04 00:56:05;;;;;;;0.30;0.10;;;9.00;1.00;;;;;;5135237;27;20422;-57
2024/02/04 00:58:32;;;;;;;0.30;0.10;;;9.00;99.90;;;;;;5121927;27;20495;-58
2024/02/04 01:00:59;;;;;;;0.30;0.10;;;8.90;98.60;;;;;;5123472;27;20495;-58
2024/02/04 01:03:26;;;;;;;0.30;0.10;;;8.80;1.00;;;;;;5114913;28;20848;-58
2024/02/04 01:05:55;;;;;;;0.30;0.10;;;8.80;1.00;;;;;;5114708;28;20546;-57
2024/02/04 01:08:22;;;;;;;0.30;0.10;;;8.90;99.90;;;;;;5110209;28;20520;-58
2024/02/04 01:10:50;;;;;;;0.30;0.10;;;8.90;1.00;;;;;;5114379;27;20477;-58
2024/02/04 01:13:18;;;;;;;0.30;0.10;;;8.90;1.00;;;;;;5113278;28;20424;-59
2024/02/04 01:15:45;;;;;;;0.40;0.10;;;8.90;99.90;;;;;;5113431;28;20538;-58
2024/02/04 01:18:13;;;;;;;0.40;0.10;;;8.90;99.90;;;;;;5114169;28;20400;-57
2024/02/04 01:20:40;;;;;;;0.30;0.10;;;9.00;99.90;;;;;;5113912;28;20432;-58
2024/02/04 01:23:09;;;;;;;0.30;0.10;;;9.00;1.00;;;;;;5114403;28;20764;-58
2024/02/04 01:25:36;;;;;;;0.40;0.10;;;8.90;99.90;;;;;;5114300;28;20408;-58
2024/02/04 01:28:03;;;;;;;0.30;0.10;;;8.80;99.90;;;;;;5114465;28;20457;-59
2024/02/04 01:30:31;;;;;;;0.68;0.10;;;8.70;99.90;;;;;;5113703;28;20419;-59
2024/02/04 01:32:58;;;;;;;0.30;0.10;;;8.70;99.90;;;;;;5113784;28;20420;-59
2024/02/04 01:35:25;;;;;;;0.30;0.10;;;8.70;1.00;;;;;;5128397;27;20422;-59
2024/02/04 01:37:56;;;;;;;0.50;0.10;;;8.80;1.00;;;;;;5120501;27;20718;-58
2024/02/04 01:40:24;;;;;;;0.40;0.10;;;8.80;99.90;;;;;;5111503;28;20851;-58
2024/02/04 01:42:53;;;;;;;0.40;0.10;;;8.70;99.90;;;;;;5113190;28;20797;-58
2024/02/04 01:45:20;;;;;;;0.82;0.10;;;8.60;1.00;;;;;;5114724;28;20412;-58
2024/02/04 01:47:47;;;;;;;0.40;0.10;;;8.50;1.00;;;;;;5115135;27;20415;-58
2024/02/04 01:50:15;;;;;;;0.30;0.10;;;8.40;26.10;;;;;;5127479;27;20517;-58
2024/02/04 01:52:43;;;;;;;0.30;0.10;;;8.50;50.30;;;;;;5133781;27;20479;-58
2024/02/04 01:55:10;;;;;;;0.30;0.10;;;8.50;16.50;;;;;;5132829;27;20734;-58
2024/02/04 01:57:39;;;;;;;0.40;0.10;;;8.50;99.90;;;;;;5119799;27;20416;-57
2024/02/04 02:00:08;;;;;;;0.40;0.10;;;8.50;99.90;;;;;;5126784;27;20956;-58
2024/02/04 02:02:39;;;;;;;0.40;0.10;;;8.50;9.70;;;;;;5133842;27;20840;-58
2024/02/04 02:05:06;;;;;;;0.40;0.10;;;8.50;1.00;;;;;;5126547;27;20426;-58
2024/02/04 02:07:33;;;;;;;0.30;0.10;;;8.40;26.50;;;;;;5132192;27;20425;-58
2024/02/04 02:10:00;;;;;;;0.40;0.10;;;8.40;84.80;;;;;;5113571;28;20428;-59
2024/02/04 02:12:31;;;;;;;0.40;0.10;;;8.40;99.90;;;;;;5112396;28;20529;-59
2024/02/04 02:15:03;;;;;;;0.30;0.10;;;8.40;99.90;;;;;;5121108;27;20704;-57
2024/02/04 02:17:37;;;;;;;0.30;0.10;;;8.40;99.90;;;;;;5134083;27;20441;-57
2024/02/04 02:20:10;;;;;;;0.30;0.10;;;8.50;99.90;;;;;;5135048;27;20414;-58
2024/02/04 02:22:46;;;;;;;0.30;0.10;;;8.60;99.90;;;;;;5133262;27;20475;-57
2024/02/04 02:25:15;;;;;;;0.30;0.10;;;8.70;93.70;;;;;;5134939;27;20465;-58
2024/02/04 02:27:50;;;;;;;0.30;0.10;;;8.70;1.00;;;;;;5134519;27;20454;-58
2024/02/04 02:30:18;;;;;;;0.30;0.10;;;8.60;1.00;;;;;;5134363;27;20422;-58
2024/02/04 02:32:46;;;;;;;0.60;0.10;;;8.60;99.90;;;;;;5133770;27;20418;-58
2024/02/04 02:35:15;;;;;;;0.40;0.10;;;8.70;1.00;;;;;;5134198;27;20418;-58
2024/02/04 02:37:47;;;;;;;0.30;0.10;;;8.70;1.00;;;;;;5131042;27;20795;-57
2024/02/04 02:40:22;;;;;;;0.30;0.10;;;8.70;1.00;;;;;;5113444;28;20420;-58
2024/02/04 02:42:53;;;;;;;0.30;0.10;;;8.70;1.00;;;;;;5114567;28;20432;-58
2024/02/04 02:45:22;;;;;;;0.30;0.10;;;8.60;1.00;;;;;;5114215;28;20420;-58
2024/02/04 02:47:51;;;;;;;0.40;0.10;;;8.50;34.40;;;;;;5113746;28;20514;-58
2024/02/04 02:50:18;;;;;;;0.50;0.10;;;8.40;99.90;;;;;;5113869;28;20435;-58
2024/02/04 02:52:45;;;;;;;0.30;0.10;;;8.40;99.90;;;;;;5131524;27;20792;-57
2024/02/04 02:55:12;;;;;;;0.90;0.10;;;8.40;99.90;;;;;;5133439;27;20906;-58
2024/02/04 02:57:40;;;;;;;0.30;0.10;;;8.40;99.90;;;;;;5133951;27;20471;-58
2024/02/04 03:00:09;;;;;;;0.40;0.10;;;8.40;99.90;;;;;;5133098;27;20481;-58
2024/02/04 03:02:37;;;;;;;0.40;0.20;;;8.50;99.90;;;;;;5133623;27;20430;-58
2024/02/04 03:05:05;;;;;;;0.50;0.10;;;8.40;99.90;;;;;;5134505;27;20746;-58
2024/02/04 03:07:33;;;;;;;0.40;0.10;;;8.40;99.90;;;;;;5130619;27;20691;-58
2024/02/04 03:09:59;;;;;;;1.30;0.10;;;8.30;99.90;;;;;;5111834;28;20427;-58
2024/02/04 03:12:26;;;;;;;0.40;0.20;;;8.20;1.00;;;;;;5112100;28;20415;-58
2024/02/04 03:14:55;;;;;;;0.60;0.20;;;8.10;1.00;;;;;;5111888;28;20428;-58
2024/02/04 03:17:22;;;;;;;0.50;0.20;;;8.10;1.00;;;;;;5112585;28;20427;-57
2024/02/04 03:19:51;;;;;;;0.40;0.13;;;8.20;1.00;;;;;;5112370;28;20417;-58
2024/02/04 03:22:19;;;;;;;0.30;0.10;;;8.20;1.00;;;;;;5112934;28;20424;-58
2024/02/04 03:24:46;;;;;;;0.38;0.10;;;8.20;1.00;;;;;;5112136;28;20509;-57
2024/02/04 03:27:13;;;;;;;0.40;0.10;;;8.30;1.00;;;;;;5113322;28;20506;-58
2024/02/04 03:29:40;;;;;;;0.40;0.10;;;8.30;1.00;;;;;;5112415;28;20636;-57
2024/02/04 03:32:09;;;;;;;0.40;0.10;;;8.30;99.90;;;;;;5111632;28;20511;-57
2024/02/04 03:34:36;;;;;;;0.30;0.10;;;8.40;99.90;;;;;;5112427;28;20416;-58
2024/02/04 03:37:03;;;;;;;0.30;0.10;;;8.50;1.00;;;;;;5112846;28;20424;-57
2024/02/04 03:39:30;;;;;;;0.30;0.10;;;8.60;1.00;;;;;;5112955;28;20404;-58
2024/02/04 03:41:57;;;;;;;0.93;0.10;;;8.70;99.90;;;;;;5112082;28;20815;-58
2024/02/04 03:44:24;;;;;;;0.30;0.10;;;8.70;99.90;;;;;;5111892;28;20507;-57
2024/02/04 03:46:51;;;;;;;0.30;0.10;;;8.70;99.90;;;;;;5112539;28;20830;-58
2024/02/04 03:49:21;;;;;;;0.85;0.10;;;8.70;99.90;;;;;;5112954;28;20440;-58
2024/02/04 03:51:48;;;;;;;0.40;0.10;;;8.60;99.90;;;;;;5122759;28;20449;-58
2024/02/04 03:54:15;;;;;;;0.40;0.10;;;8.60;99.90;;;;;;5132753;28;20418;-58
2024/02/04 03:56:42;;;;;;;0.30;0.10;;;8.70;99.90;;;;;;5132844;28;20414;-58
2024/02/04 03:59:10;;;;;;;0.30;0.10;;;8.80;99.90;;;;;;5133640;28;20418;-58
2024/02/04 04:01:38;;;;;;;0.30;0.10;;;8.80;99.90;;;;;;5133648;28;20439;-57
2024/02/04 04:04:05;;;;;;;0.30;0.10;;;8.80;99.90;;;;;;5129600;28;20423;-58
2024/02/04 04:06:34;;;;;;;0.30;0.10;;;8.70;99.90;;;;;;5128432;28;20471;-58
2024/02/04 04:09:01;;;;;;;0.32;0.10;;;8.70;99.90;;;;;;5118387;28;20420;-58
2024/02/04 04:11:28;;;;;;;0.30;0.10;;;8.60;99.90;;;;;;5116432;28;20521;-58
2024/02/04 04:13:55;;;;;;;0.30;0.10;;;8.70;99.90;;;;;;5116008;28;20439;-58
2024/02/04 04:16:23;;;;;;;0.80;0.10;;;8.70;99.90;;;;;;5115704;28;20426;-54
2024/02/04 04:18:50;;;;;;;0.30;0.10;;;8.70;99.90;;;;;;5116958;28;20817;-58
2024/02/04 04:21:17;;;;;;;0.30;0.10;;;8.80;99.90;;;;;;5116201;28;20506;-57
2024/02/04 04:23:46;;;;;;;0.30;0.10;;;8.90;99.90;;;;;;5116547;28;20428;-58
2024/02/04 04:26:13;;;;;;;0.30;0.10;;;8.90;1.00;;;;;;5116300;28;20458;-57
2024/02/04 04:28:40;;;;;;;0.30;0.10;;;8.90;1.00;;;;;;5115962;28;20415;-60
2024/02/04 04:31:07;;;;;;;0.30;0.10;;;8.80;99.90;;;;;;5115596;28;20428;-60
2024/02/04 04:33:34;;;;;;;0.30;0.10;;;8.90;99.90;;;;;;5116388;28;20918;-59
2024/02/04 04:36:01;;;;;;;0.30;0.10;;;9.00;1.00;;;;;;5115371;28;20420;-59
2024/02/04 04:38:28;;;;;;;0.30;0.10;;;8.90;1.00;;;;;;5115813;28;20485;-59
2024/02/04 04:40:56;;;;;;;0.30;0.10;;;8.90;54.60;;;;;;5115685;28;20791;-60
2024/02/04 04:43:23;;;;;;;0.30;0.10;;;8.90;1.00;;;;;;5114527;28;20431;-59
2024/02/04 04:45:50;;;;;;;0.30;0.10;;;9.10;99.90;;;;;;5114560;28;20481;-59
2024/02/04 04:48:17;;;;;;;0.30;0.10;;;9.10;1.00;;;;;;5113080;28;20424;-60
2024/02/04 04:50:45;;;;;;;0.40;0.10;;;9.00;99.90;;;;;;5111451;28;20436;-63
2024/02/04 04:53:11;;;;;;;0.30;0.10;;;8.90;99.90;;;;;;5114785;28;20752;-59
2024/02/04 04:55:39;;;;;;;0.60;0.10;;;8.90;1.00;;;;;;5115015;28;20990;-61
2024/02/04 04:58:07;;;;;;;0.30;0.10;;;8.90;1.00;;;;;;5114338;28;20484;-58
2024/02/04 05:00:34;;;;;;;0.30;0.10;;;8.70;1.00;;;;;;5114747;28;20428;-57
2024/02/04 05:03:02;;;;;;;0.30;0.10;;;8.60;99.90;;;;;;5115002;28;20896;-58
2024/02/04 05:05:29;;;;;;;0.40;0.10;;;8.50;99.90;;;;;;5115186;28;20427;-58
2024/02/04 05:07:56;;;;;;;0.30;0.10;;;8.40;99.90;;;;;;5113845;28;20430;-58
2024/02/04 05:10:23;;;;;;;0.30;0.10;;;8.40;99.90;;;;;;5113155;28;20436;-57
2024/02/04 05:12:52;;;;;;;0.30;0.10;;;8.30;1.00;;;;;;5117590;27;20885;-58
2024/02/04 05:15:22;;;;;;;0.30;0.10;;;8.30;1.00;;;;;;5114646;27;20424;-58
2024/02/04 05:17:49;;;;;;;0.30;0.10;;;8.30;1.00;;;;;;5111751;28;20810;-58
2024/02/04 05:20:16;;;;;;;1.20;0.10;;;8.30;1.00;;;;;;5113113;28;20481;-59
2024/02/04 05:22:43;;;;;;;0.30;0.10;;;8.40;1.00;;;;;;5112244;28;20802;-58
2024/02/04 05:25:10;;;;;;;0.30;0.10;;;8.40;99.90;;;;;;5114146;28;20440;-58
2024/02/04 05:27:37;;;;;;;0.32;0.15;;;8.40;99.90;;;;;;5114547;28;20431;-58
2024/02/04 05:30:05;;;;;;;0.60;0.20;;;8.50;99.90;;;;;;5112998;28;20432;-57
2024/02/04 05:32:34;;;;;;;0.30;0.10;;;8.40;99.90;;;;;;5114379;27;20424;-58
2024/02/04 05:35:01;;;;;;;0.30;0.10;;;8.40;99.90;;;;;;5114303;28;21000;-58
2024/02/04 05:37:28;;;;;;;0.32;0.10;;;8.50;99.90;;;;;;5114004;28;20810;-58
2024/02/04 05:39:55;;;;;;;0.40;0.10;;;8.50;99.90;;;;;;5114163;28;20415;-58
2024/02/04 05:42:21;;;;;;;0.38;0.10;;;8.50;99.90;;;;;;5113560;28;20913;-58
2024/02/04 05:44:48;;;;;;;0.70;0.10;;;8.50;99.90;;;;;;5114117;28;20420;-58
2024/02/04 05:47:15;;;;;;;0.60;0.20;;;8.50;99.90;;;;;;5125869;27;20872;-57
2024/02/04 05:49:45;;;;;;;0.38;0.10;;;8.60;99.90;;;;;;5134746;27;20430;-58
2024/02/04 05:52:13;;;;;;;0.30;0.10;;;8.60;99.90;;;;;;5128190;27;20442;-58
2024/02/04 05:54:40;;;;;;;0.30;0.10;;;8.60;99.90;;;;;;5135191;27;20418;-58
2024/02/04 05:57:07;;;;;;;0.30;0.10;;;8.60;43.00;;;;;;5133501;27;20418;-58
2024/02/04 05:59:34;;;;;;;0.30;0.10;;;8.60;1.00;;;;;;5134500;27;20432;-58
2024/02/04 06:02:01;;;;;;;0.40;0.10;;;8.60;9.60;;;;;;5128009;27;20439;-58
2024/02/04 06:04:29;;;;;;;0.30;0.10;;;8.50;99.90;;;;;;5114515;28;20412;-57
2024/02/04 06:06:57;;;;;;;0.30;0.10;;;8.40;99.90;;;;;;5115734;27;20426;-58
2024/02/04 06:09:26;;;;;;;0.30;0.10;;;8.30;99.90;;;;;;5114012;28;20803;-58
2024/02/04 06:11:53;;;;;;;0.40;0.20;;;8.30;99.90;;;;;;5112061;28;20497;-57
2024/02/04 06:14:20;;;;;;;0.30;0.10;;;8.20;1.00;;;;;;5114513;28;20476;-58
2024/02/04 06:16:47;;;;;;;0.40;0.10;;;8.20;1.00;;;;;;5115247;28;20507;-58
2024/02/04 06:19:14;;;;;;;0.30;0.10;;;8.20;1.00;;;;;;5114283;28;20532;-58
2024/02/04 06:21:41;;;;;;;0.30;0.10;;;8.10;1.00;;;;;;5118314;27;20446;-59
2024/02/04 06:24:10;;;;;;;0.40;0.10;;;8.10;1.00;;;;;;5134194;27;20414;-59
2024/02/04 06:26:39;;;;;;;0.30;0.10;;;8.10;1.00;;;;;;5125102;27;20428;-58
2024/02/04 06:29:06;;;;;;;0.30;0.10;;;8.10;1.00;;;;;;5114601;28;20763;-60
2024/02/04 06:31:33;;;;;;;0.30;0.10;;;8.10;1.00;;;;;;5113203;28;20424;-59
2024/02/04 06:34:01;;;;;;;0.30;0.10;;;8.10;1.00;;;;;;5113653;28;20496;-59
2024/02/04 06:36:28;;;;;;;0.30;0.10;;;8.10;1.00;;;;;;5133176;27;20932;-58
2024/02/04 06:38:55;;;;;;;0.40;0.10;;;8.10;1.00;;;;;;5120449;27;20428;-58
2024/02/04 06:41:23;;;;;;;0.30;0.10;;;8.10;1.00;;;;;;5118117;27;20429;-58
2024/02/04 06:43:50;;;;;;;0.30;0.10;;;8.10;1.00;;;;;;5117302;27;20400;-58
2024/02/04 06:46:25;;;;;;;0.30;0.10;;;8.10;1.00;;;;;;5131971;27;20410;-59
2024/02/04 06:48:53;;;;;;;0.30;0.10;;;8.10;1.00;;;;;;5133421;27;20501;-59
2024/02/04 06:51:20;;;;;;;0.30;0.10;;;8.00;1.00;;;;;;5132074;27;20457;-59
2024/02/04 06:53:47;;;;;;;0.33;0.10;;;8.10;1.00;;;;;;5120284;27;20844;-59
2024/02/04 06:56:14;;;;;;;0.30;0.10;;;8.10;1.00;;;;;;5111990;28;20420;-59
2024/02/04 06:58:43;;;;;;;0.30;0.10;;;8.10;1.00;;;;;;5111996;28;20408;-59
2024/02/04 07:01:11;;;;;;;0.40;0.10;;;8.10;1.00;;;;;;5120122;27;20407;-59
2024/02/04 07:03:38;;;;;;;0.30;0.10;;;8.10;1.00;;;;;;5132229;27;20597;-59
2024/02/04 07:06:05;;;;;;;0.30;0.10;;;8.00;1.00;;;;;;5133797;27;20422;-59
2024/02/04 07:08:32;;;;;;;0.30;0.10;;;8.00;1.00;;;;;;5119834;27;20421;-59
2024/02/04 07:10:59;;;;;;;0.30;0.10;;;7.90;1.00;;;;;;5111083;28;20440;-59
2024/02/04 07:13:26;;;;;;;0.30;0.10;;;7.90;1.00;;;;;;5112140;28;20760;-59
2024/02/04 07:15:55;;;;;;;0.30;0.10;;;7.90;1.00;;;;;;5111682;28;20453;-59
2024/02/04 07:18:22;;;;;;;0.30;0.10;;;7.90;1.00;;;;;;5111639;28;20462;-59
2024/02/04 07:20:49;;;;;;;0.30;0.10;;;7.90;1.00;;;;;;5112902;28;20515;-59
2024/02/04 07:23:16;;;;;;;0.30;0.10;;;7.90;1.00;;;;;;5111092;28;20416;-59
2024/02/04 07:25:43;;;;;;;0.30;0.10;;;7.90;1.00;;;;;;5111562;28;20412;-59
2024/02/04 07:28:10;;;;;;;0.30;0.10;;;7.90;1.00;;;;;;5110446;28;20420;-59
2024/02/04 07:30:37;;;;;;;0.30;0.10;;;7.90;1.00;;;;;;5109494;28;20431;-59
2024/02/04 07:33:06;;;;;;;0.30;0.10;;;7.90;1.00;;;;;;5107985;28;20420;-59
2024/02/04 07:35:33;;;;;;;0.30;0.10;;;8.00;1.00;;;;;;5109930;28;20420;-59
2024/02/04 07:38:00;;;;;;;0.40;0.10;;;8.20;1.00;;;;;;5123382;28;20515;-59
2024/02/04 07:40:27;;;;;;;0.30;0.10;;;8.20;1.00;;;;;;5114260;28;20423;-59
2024/02/04 07:42:55;;;;;;;0.30;0.10;;;8.20;1.00;;;;;;5114341;28;20967;-59
2024/02/04 07:45:22;;;;;;;0.30;0.10;;;8.20;1.00;;;;;;5097834;28;20429;-59
2024/02/04 07:47:49;;;;;;;0.40;0.10;;;8.20;1.00;;;;;;5119381;27;20428;-59
2024/02/04 07:50:17;;;;;;;0.30;0.10;;;8.30;1.00;;;;;;5112181;27;20431;-58
2024/02/04 07:52:44;;;;;;;0.30;0.10;;;8.40;1.00;;;;;;5115473;28;20416;-59
2024/02/04 07:55:11;;;;;;;0.30;0.10;;;8.50;1.00;;;;;;5118845;27;20416;-59
2024/02/04 07:57:38;;;;;;;0.30;0.10;;;8.40;1.00;;;;;;5115622;28;20430;-59
2024/02/04 08:00:10;;;;;;;0.30;0.10;;;8.40;1.00;;;;;;5134877;27;20479;-59
2024/02/04 08:02:37;;;;;;;1.00;0.20;;;8.40;1.00;;;;;;5135580;27;20822;-59
2024/02/04 08:05:07;;;;;;;0.40;0.10;;;8.40;1.00;;;;;;5130677;27;20730;-59
2024/02/04 08:07:35;;;;;;;0.30;0.10;;;8.40;1.00;;;;;;5132949;27;20800;-59
2024/02/04 08:10:04;;;;;;;0.30;0.10;;;8.40;1.00;;;;;;5107459;27;20436;-59
2024/02/04 08:12:31;;;;;;;0.30;0.10;;;8.50;1.00;;;;;;5112794;27;20428;-59
2024/02/04 08:14:58;;;;;;;0.30;0.10;;;8.50;99.90;;;;;;5092544;28;20430;-59
2024/02/04 08:17:26;;;;;;;0.50;0.10;;;8.60;99.90;;;;;;5093605;28;20508;-59
2024/02/04 08:19:53;;;;;;;0.40;0.10;;;8.50;99.90;;;;;;5114367;27;20948;-58
2024/02/04 08:22:20;;;;;;;0.40;0.10;;;8.50;99.90;;;;;;5107034;27;20418;-59
2024/02/04 08:24:48;;;;;;;0.30;0.10;;;8.60;99.90;;;;;;5099501;27;20433;-59
2024/02/04 08:27:17;;;;;;;0.50;0.10;;;8.60;99.90;;;;;;5094137;28;20437;-59
2024/02/04 08:29:44;;;;;;;0.30;0.10;;;8.50;99.90;;;;;;5093850;28;20430;-59
2024/02/04 08:32:12;;;;;;;0.30;0.10;;;8.50;1.00;;;;;;5102581;28;20432;-59
2024/02/04 08:34:39;;;;;;;0.30;0.10;;;8.60;99.90;;;;;;5102015;28;20524;-59
2024/02/04 08:37:07;;;;;;;0.30;0.10;;;8.60;99.90;;;;;;5102778;28;20424;-59
2024/02/04 08:39:36;;;;;;;0.40;0.10;;;8.70;99.90;;;;;;5129674;27;20430;-59
2024/02/04 08:42:06;;;;;;;0.40;0.10;;;8.70;99.90;;;;;;5127966;27;20420;-59
2024/02/04 08:44:32;;;;;;;0.30;0.10;;;8.80;99.90;;;;;;5126026;27;20418;-59
2024/02/04 08:46:59;;;;;;;0.30;0.10;;;8.80;99.90;;;;;;5134190;27;20479;-59
2024/02/04 08:49:26;;;;;;;0.70;0.10;;;8.90;99.90;;;;;;5119959;27;20805;-59
2024/02/04 08:51:53;;;;;;;0.30;0.10;;;8.90;99.90;;;;;;5114089;27;20426;-59
2024/02/04 08:54:21;;;;;;;0.30;0.10;;;9.00;99.90;;;;;;5112994;27;20500;-59
2024/02/04 08:56:47;;;;;;;0.30;0.10;;;9.10;99.90;;;;;;5111545;27;20488;-59
2024/02/04 08:59:16;;;;;;;0.40;0.20;;;9.20;91.00;;;;;;5107031;28;20483;-59
2024/02/04 09:01:43;;;;;;;0.30;0.10;;;9.20;1.00;;;;;;5119834;27;20421;-59
2024/02/04 09:04:10;;;;;;;0.30;0.10;;;9.30;1.00;;;;;;5111103;28;20452;-59
2024/02/04 09:06:37;;;;;;;0.40;0.20;;;9.30;1.00;;;;;;5115954;27;20483;-59
2024/02/04 09:09:04;;;;;;;0.35;0.20;;;9.40;1.00;;;;;;5114276;27;20498;-59
2024/02/04 09:11:31;;;;;;;0.40;0.20;;;9.40;1.00;;;;;;5111986;27;20440;-59
2024/02/04 09:13:58;;;;;;;0.30;0.10;;;9.50;1.00;;;;;;5112870;27;20502;-60
2024/02/04 09:16:26;;;;;;;0.30;0.10;;;9.50;99.90;;;;;;5109998;28;20424;-59
2024/02/04 09:18:53;;;;;;;0.30;0.10;;;9.50;99.90;;;;;;5116036;27;20433;-59
2024/02/04 09:21:21;;;;;;;0.30;0.10;;;9.50;99.90;;;;;;5110456;28;20425;-59
2024/02/04 09:23:48;;;;;;;0.30;0.10;;;9.60;99.90;;;;;;5112216;28;20439;-59
2024/02/04 09:26:15;;;;;;;0.30;0.10;;;9.80;99.90;;;;;;5105300;27;20885;-59
2024/02/04 09:28:42;;;;;;;0.30;0.10;;;9.90;1.00;;;;;;5095228;28;20482;-60
2024/02/04 09:31:09;;;;;;;0.30;0.10;;;10.00;99.90;;;;;;5118593;27;20493;-59
2024/02/04 09:33:40;;;;;;;0.30;0.10;;;10.10;99.90;;;;;;5100610;28;20522;-60
2024/02/04 09:36:07;;;;;;;0.40;0.10;;;10.10;99.90;;;;;;5123782;27;20769;-59
2024/02/04 09:38:34;;;;;;;0.30;0.10;;;10.20;99.90;;;;;;5110235;27;20436;-59
2024/02/04 09:41:03;;;;;;;0.30;0.10;;;10.20;99.90;;;;;;5109529;28;20477;-61
2024/02/04 09:43:32;;;;;;;0.30;0.10;;;10.20;99.90;;;;;;5105501;28;20643;-59
2024/02/04 09:45:59;;;;;;;0.30;0.10;;;10.30;99.90;;;;;;5108190;27;20443;-59
2024/02/04 09:48:30;;;;;;;0.30;0.10;;;10.30;99.90;;;;;;5111079;28;20436;-59
2024/02/04 09:50:59;;;;;;;0.30;0.10;;;10.50;99.90;;;;;;5124795;27;20446;-60
2024/02/04 09:53:34;;;;;;;0.30;0.10;;;10.60;99.90;;;;;;5107856;28;20439;-61
2024/02/04 09:56:03;;;;;;;0.30;0.10;;;10.50;99.90;;;;;;5102218;28;20512;-60
2024/02/04 09:58:30;;;;;;;0.30;0.10;;;10.40;99.90;;;;;;5107131;28;20428;-58
2024/02/04 10:00:58;;;;;;;0.30;0.10;;;10.50;99.90;;;;;;5114214;27;20448;-60
2024/02/04 10:03:25;;;;;;;0.30;0.10;;;10.60;99.90;;;;;;5113098;28;20515;-59
2024/02/04 10:05:52;;;;;;;0.30;0.10;;;10.70;99.90;;;;;;5127584;27;20426;-60
2024/02/04 10:08:21;;;;;;;0.30;0.10;;;10.80;99.90;;;;;;5118318;27;20427;-60
2024/02/04 10:10:48;;;;;;;0.30;0.10;;;10.80;99.90;;;;;;5117310;27;20792;-60
2024/02/04 10:13:15;;;;;;;0.30;0.10;;;10.80;99.90;;;;;;5114973;27;20793;-60
2024/02/04 10:15:42;;;;;;;0.50;0.10;;;10.90;99.90;;;;;;5116581;27;20772;-60
2024/02/04 10:18:12;;;;;;;0.30;0.10;;;11.00;99.90;;;;;;5122529;27;20711;-60
2024/02/04 10:20:39;;;;;;;0.30;0.10;;;11.10;99.90;;;;;;5122641;27;20420;-60
2024/02/04 10:23:06;;;;;;;0.30;0.10;;;11.20;99.90;;;;;;5125987;27;20430;-60
2024/02/04 10:25:34;;;;;;;0.30;0.10;;;11.30;99.90;;;;;;5126634;27;20474;-59
2024/02/04 10:28:01;;;;;;;0.30;0.10;;;11.30;99.90;;;;;;5115695;27;20577;-59
2024/02/04 10:30:29;;;;;;;0.30;0.10;;;11.30;99.90;;;;;;5108074;28;20434;-59
2024/02/04 10:32:56;;;;;;;0.30;0.10;;;11.40;99.90;;;;;;5108869;28;20454;-58
2024/02/04 10:35:23;;;;;;;0.30;0.10;;;11.50;99.90;;;;;;5093539;28;20882;-59
2024/02/04 10:37:51;;;;;;;0.30;0.10;;;11.60;99.90;;;;;;5096001;27;20422;-60
2024/02/04 10:40:18;;;;;;;0.30;0.10;;;11.60;99.90;;;;;;5118182;27;20501;-60
2024/02/04 10:42:47;;;;;;;0.30;0.10;;;11.60;99.90;;;;;;5108880;28;20449;-59
2024/02/04 10:45:18;;;;;;;0.30;0.10;;;11.70;99.90;;;;;;5111402;27;20511;-60
2024/02/04 10:47:51;;;;;;;0.30;0.10;;;11.90;99.90;;;;;;5104914;28;20438;-59
2024/02/04 10:50:21;;;;;;;0.30;0.10;;;12.10;99.90;;;;;;5109219;27;21800;-60
2024/02/04 10:52:50;;;;;;;0.30;0.10;;;12.20;99.90;;;;;;5108749;28;20431;-60
2024/02/04 10:55:23;;;;;;;0.30;0.10;;;12.30;99.90;;;;;;5109425;28;20432;-61
2024/02/04 10:57:51;;;;;;;0.30;0.10;;;12.30;99.90;;;;;;5108103;27;20855;-60
2024/02/04 11:00:20;;;;;;;0.30;0.10;;;12.30;99.90;;;;;;5098052;28;20487;-58
2024/02/04 11:02:48;;;;;;;0.30;0.10;;;12.40;99.90;;;;;;5109422;28;20424;-60
2024/02/04 11:05:17;;;;;;;1.02;0.30;;;12.40;99.90;;;;;;5109242;28;20450;-61
2024/02/04 11:07:45;;;;;;;0.40;0.10;;;12.40;99.90;;;;;;5108014;28;20477;-60
2024/02/04 11:10:12;;;;;;;1.00;0.20;;;12.20;99.90;;;;;;5095894;28;20426;-61
2024/02/04 11:12:42;;;;;;;0.60;0.10;;;12.30;99.90;;;;;;5102486;28;20442;-59
2024/02/04 11:15:13;;;;;;;0.35;0.10;;;12.50;99.90;;;;;;5109206;28;20416;-59
2024/02/04 11:18:31;;;;;;;0.30;0.10;;;12.50;99.90;;;;;;5101524;28;20441;-60
2024/02/04 11:21:20;;;;;;;0.40;0.10;;;12.50;99.90;;;;;;5025135;28;20498;-59
2024/02/04 11:24:00;;;;;;;0.30;0.10;;;12.60;99.90;;;;;;5106380;28;20428;-60
2024/02/04 11:26:28;;;;;;;0.30;0.10;;;12.80;99.90;;;;;;5105522;28;20725;-61
2024/02/04 11:28:56;;;;;;;0.30;0.10;;;12.80;99.90;;;;;;5101486;28;20430;-62
2024/02/04 11:31:24;;;;;;;0.30;0.10;;;12.80;99.90;;;;;;5090418;28;20509;-61
2024/02/04 11:33:52;;;;;;;0.30;0.10;;;13.10;99.90;;;;;;5090737;28;20487;-60
2024/02/04 11:36:19;;;;;;;0.30;0.10;;;13.40;99.90;;;;;;5108563;28;20438;-59
2024/02/04 11:38:49;;;;;;;0.30;0.10;;;13.40;99.90;;;;;;5109523;28;20420;-59
2024/02/04 11:41:23;;;;;;;0.30;0.10;;;13.40;99.90;;;;;;5092664;28;20847;-61
2024/02/04 11:43:54;;;;;;;0.50;0.10;;;13.30;99.90;;;;;;5095892;28;20581;-59
2024/02/04 11:46:21;;;;;;;0.30;0.10;;;13.40;99.90;;;;;;5099383;28;20505;-60
2024/02/04 11:48:54;;;;;;;0.30;0.10;;;13.40;99.90;;;;;;5122579;28;20426;-61
2024/02/04 11:51:24;;;;;;;0.30;0.10;;;13.20;99.90;;;;;;5098797;28;20448;-61
2024/02/04 11:53:51;;;;;;;0.40;0.10;;;13.10;99.90;;;;;;5107749;28;20695;-61
2024/02/04 11:56:19;;;;;;;0.30;0.10;;;13.10;99.90;;;;;;5109349;28;20671;-59
2024/02/04 11:58:47;;;;;;;0.50;0.10;;;13.20;99.90;;;;;;5110130;28;20908;-58
2024/02/04 12:01:14;;;;;;;0.60;0.10;;;13.30;99.90;;;;;;5109860;28;20861;-60
2024/02/04 12:03:41;;;;;;;0.30;0.10;;;13.20;99.90;;;;;;5111033;28;20420;-60
2024/02/04 12:06:10;;;;;;;0.30;0.10;;;13.00;99.90;;;;;;5109848;28;20424;-60
2024/02/04 12:08:38;;;;;;;0.30;0.10;;;12.90;99.90;;;;;;5109714;28;20753;-61
2024/02/04 12:11:06;;;;;;;0.30;0.10;;;12.90;99.90;;;;;;5109287;28;20547;-60
2024/02/04 12:13:37;;;;;;;0.30;0.10;;;12.90;99.90;;;;;;5109510;28;20467;-61
2024/02/04 12:16:07;;;;;;;0.30;0.10;;;12.80;99.90;;;;;;5110128;28;20502;-60
2024/02/04 12:18:34;;;;;;;0.30;0.10;;;12.70;99.90;;;;;;5110993;28;20818;-60
2024/02/04 12:21:01;;;;;;;0.30;0.10;;;12.70;99.90;;;;;;5107850;28;20420;-60
2024/02/04 12:23:30;;;;;;;0.30;0.10;;;12.80;99.90;;;;;;5108212;28;20491;-59
2024/02/04 12:25:57;;;;;;;0.30;0.10;;;12.80;99.90;;;;;;5103539;28;20439;-60
2024/02/04 12:28:25;;;;;;;0.30;0.10;;;12.80;99.90;;;;;;5106883;28;20406;-59
2024/02/04 12:30:55;;;;;;;0.30;0.10;;;12.90;99.90;;;;;;5096781;28;20440;-59
2024/02/04 12:33:22;;;;;;;0.30;0.10;;;12.80;99.90;;;;;;5092815;28;20452;-59
2024/02/04 12:35:55;;;;;;;0.30;0.10;;;12.90;99.90;;;;;;5103066;28;20523;-60
2024/02/04 12:38:22;;;;;;;0.30;0.10;;;12.90;99.90;;;;;;5113119;28;20535;-60
2024/02/04 12:40:51;;;;;;;0.30;0.10;;;13.00;99.90;;;;;;5113136;27;20428;-60
2024/02/04 12:43:18;;;;;;;0.30;0.10;;;12.90;99.90;;;;;;5122510;27;20472;-60
2024/02/04 12:45:45;;;;;;;0.38;0.10;;;12.40;99.90;;;;;;5101440;28;20489;-60
2024/02/04 12:48:17;;;;;;;0.70;0.10;;;12.30;1.00;;;;;;5114374;27;20502;-61
2024/02/04 12:50:44;;;;;;;0.30;0.10;;;12.40;1.00;;;;;;5112017;28;20443;-61
2024/02/04 12:53:12;;;;;;;0.70;0.10;;;12.50;1.00;;;;;;5101171;27;20434;-61
2024/02/04 12:55:40;;;;;;;0.30;0.10;;;12.60;1.00;;;;;;5110786;28;20505;-61
2024/02/04 12:58:11;;;;;;;0.30;0.10;;;12.60;1.00;;;;;;5119201;27;20426;-59
2024/02/04 13:00:39;;;;;;;0.30;0.10;;;12.80;1.00;;;;;;5127429;27;20468;-60
2024/02/04 13:03:08;;;;;;;0.50;0.10;;;13.00;1.00;;;;;;5115021;27;20432;-60